sensor_id;sensor_type;location;lat;lon;timestamp;P1;durP1;ratioP1;P2;durP2;ratioP2
52708;SDS011;38606;52.986;6.980;2024-02-26T00:01:37;20.63;;;13.43;;
52708;SDS011;38606;52.986;6.980;2024-02-26T00:04:03;22.02;;;13.77;;
52708;SDS011;38606;52.986;6.980;2024-02-26T00:06:29;22.55;;;14.27;;
52708;SDS011;38606;52.986;6.980;2024-02-26T00:08:55;20.65;;;13.77;;
52708;SDS011;38606;52.986;6.980;2024-02-26T00:11:21;22.52;;;13.55;;
52708;SDS011;38606;52.986;6.980;2024-02-26T00:13:47;20.30;;;13.65;;
52708;SDS011;38606;52.986;6.980;2024-02-26T00:16:13;20.02;;;13.60;;
52708;SDS011;38606;52.986;6.980;2024-02-26T00:18:38;22.00;;;14.27;;
52708;SDS011;38606;52.986;6.980;2024-02-26T00:21:04;22.08;;;13.52;;
52708;SDS011;38606;52.986;6.980;2024-02-26T00:23:30;20.60;;;13.13;;
52708;SDS011;38606;52.986;6.980;2024-02-26T00:25:56;22.55;;;14.15;;
52708;SDS011;38606;52.986;6.980;2024-02-26T00:28:21;24.27;;;14.30;;
52708;SDS011;38606;52.986;6.980;2024-02-26T00:30:47;22.35;;;14.30;;
52708;SDS011;38606;52.986;6.980;2024-02-26T00:33:16;20.33;;;13.52;;
52708;SDS011;38606;52.986;6.980;2024-02-26T00:35:42;22.63;;;13.85;;
52708;SDS011;38606;52.986;6.980;2024-02-26T00:38:08;22.58;;;14.60;;
52708;SDS011;38606;52.986;6.980;2024-02-26T00:40:33;22.80;;;14.30;;
52708;SDS011;38606;52.986;6.980;2024-02-26T00:42:59;22.05;;;14.20;;
52708;SDS011;38606;52.986;6.980;2024-02-26T00:45:25;22.00;;;14.25;;
52708;SDS011;38606;52.986;6.980;2024-02-26T00:47:51;24.45;;;13.98;;
52708;SDS011;38606;52.986;6.980;2024-02-26T00:50:16;22.85;;;14.15;;
52708;SDS011;38606;52.986;6.980;2024-02-26T00:52:42;23.50;;;14.52;;
52708;SDS011;38606;52.986;6.980;2024-02-26T00:55:08;23.75;;;14.23;;
52708;SDS011;38606;52.986;6.980;2024-02-26T00:57:34;23.85;;;14.60;;
52708;SDS011;38606;52.986;6.980;2024-02-26T00:59:59;26.15;;;14.45;;
52708;SDS011;38606;52.986;6.980;2024-02-26T01:02:25;26.02;;;15.07;;
52708;SDS011;38606;52.986;6.980;2024-02-26T01:04:51;23.40;;;15.20;;
52708;SDS011;38606;52.986;6.980;2024-02-26T01:07:17;26.13;;;15.63;;
52708;SDS011;38606;52.986;6.980;2024-02-26T01:09:44;24.20;;;14.75;;
52708;SDS011;38606;52.986;6.980;2024-02-26T01:12:09;25.35;;;14.98;;
52708;SDS011;38606;52.986;6.980;2024-02-26T01:14:35;26.17;;;15.02;;
52708;SDS011;38606;52.986;6.980;2024-02-26T01:17:01;26.33;;;15.23;;
52708;SDS011;38606;52.986;6.980;2024-02-26T01:19:27;28.55;;;15.30;;
52708;SDS011;38606;52.986;6.980;2024-02-26T01:21:52;31.45;;;15.70;;
52708;SDS011;38606;52.986;6.980;2024-02-26T01:24:18;27.23;;;15.35;;
52708;SDS011;38606;52.986;6.980;2024-02-26T01:26:44;28.73;;;16.02;;
52708;SDS011;38606;52.986;6.980;2024-02-26T01:29:09;30.92;;;16.85;;
52708;SDS011;38606;52.986;6.980;2024-02-26T01:31:35;29.40;;;16.25;;
52708;SDS011;38606;52.986;6.980;2024-02-26T01:34:01;32.33;;;17.30;;
52708;SDS011;38606;52.986;6.980;2024-02-26T01:36:27;34.72;;;17.58;;
52708;SDS011;38606;52.986;6.980;2024-02-26T01:38:52;34.72;;;17.45;;
52708;SDS011;38606;52.986;6.980;2024-02-26T01:41:18;38.55;;;19.42;;
52708;SDS011;38606;52.986;6.980;2024-02-26T01:43:44;39.90;;;19.13;;
52708;SDS011;38606;52.986;6.980;2024-02-26T01:46:11;45.63;;;20.15;;
52708;SDS011;38606;52.986;6.980;2024-02-26T01:48:42;46.58;;;20.70;;
52708;SDS011;38606;52.986;6.980;2024-02-26T01:51:09;45.35;;;20.20;;
52708;SDS011;38606;52.986;6.980;2024-02-26T01:53:37;48.90;;;20.48;;
52708;SDS011;38606;52.986;6.980;2024-02-26T01:56:03;45.92;;;20.40;;
52708;SDS011;38606;52.986;6.980;2024-02-26T01:58:29;51.42;;;21.83;;
52708;SDS011;38606;52.986;6.980;2024-02-26T02:00:56;52.05;;;21.65;;
52708;SDS011;38606;52.986;6.980;2024-02-26T02:03:23;49.50;;;20.65;;
52708;SDS011;38606;52.986;6.980;2024-02-26T02:05:49;48.22;;;20.55;;
52708;SDS011;38606;52.986;6.980;2024-02-26T02:08:15;50.88;;;22.20;;
52708;SDS011;38606;52.986;6.980;2024-02-26T02:10:41;47.22;;;20.83;;
52708;SDS011;38606;52.986;6.980;2024-02-26T02:13:07;50.40;;;20.92;;
52708;SDS011;38606;52.986;6.980;2024-02-26T02:15:34;46.60;;;21.33;;
52708;SDS011;38606;52.986;6.980;2024-02-26T02:18:00;51.30;;;21.33;;
52708;SDS011;38606;52.986;6.980;2024-02-26T02:20:26;48.67;;;20.48;;
52708;SDS011;38606;52.986;6.980;2024-02-26T02:23:00;48.75;;;21.95;;
52708;SDS011;38606;52.986;6.980;2024-02-26T02:25:25;49.60;;;21.55;;
52708;SDS011;38606;52.986;6.980;2024-02-26T02:27:52;52.92;;;22.33;;
52708;SDS011;38606;52.986;6.980;2024-02-26T02:30:19;50.70;;;22.25;;
52708;SDS011;38606;52.986;6.980;2024-02-26T02:32:47;52.97;;;22.27;;
52708;SDS011;38606;52.986;6.980;2024-02-26T02:35:12;55.15;;;22.58;;
52708;SDS011;38606;52.986;6.980;2024-02-26T02:37:38;56.22;;;22.58;;
52708;SDS011;38606;52.986;6.980;2024-02-26T02:40:04;55.80;;;23.20;;
52708;SDS011;38606;52.986;6.980;2024-02-26T02:42:30;50.33;;;21.77;;
52708;SDS011;38606;52.986;6.980;2024-02-26T02:44:56;52.13;;;21.98;;
52708;SDS011;38606;52.986;6.980;2024-02-26T02:47:22;58.55;;;22.67;;
52708;SDS011;38606;52.986;6.980;2024-02-26T02:49:47;51.40;;;21.08;;
52708;SDS011;38606;52.986;6.980;2024-02-26T02:52:13;52.90;;;22.13;;
52708;SDS011;38606;52.986;6.980;2024-02-26T02:54:39;55.90;;;21.10;;
52708;SDS011;38606;52.986;6.980;2024-02-26T02:57:07;55.03;;;20.25;;
52708;SDS011;38606;52.986;6.980;2024-02-26T02:59:36;53.30;;;21.08;;
52708;SDS011;38606;52.986;6.980;2024-02-26T03:02:02;55.28;;;21.20;;
52708;SDS011;38606;52.986;6.980;2024-02-26T03:04:28;51.03;;;21.13;;
52708;SDS011;38606;52.986;6.980;2024-02-26T03:06:54;53.40;;;21.70;;
52708;SDS011;38606;52.986;6.980;2024-02-26T03:09:20;55.25;;;21.77;;
52708;SDS011;38606;52.986;6.980;2024-02-26T03:11:46;49.58;;;21.05;;
52708;SDS011;38606;52.986;6.980;2024-02-26T03:14:12;55.03;;;24.02;;
52708;SDS011;38606;52.986;6.980;2024-02-26T03:16:37;54.58;;;22.85;;
52708;SDS011;38606;52.986;6.980;2024-02-26T03:19:03;56.15;;;23.23;;
52708;SDS011;38606;52.986;6.980;2024-02-26T03:21:29;61.28;;;23.83;;
52708;SDS011;38606;52.986;6.980;2024-02-26T03:23:55;58.13;;;23.85;;
52708;SDS011;38606;52.986;6.980;2024-02-26T03:26:20;54.08;;;24.00;;
52708;SDS011;38606;52.986;6.980;2024-02-26T03:28:46;58.03;;;25.23;;
52708;SDS011;38606;52.986;6.980;2024-02-26T03:31:12;59.67;;;25.20;;
52708;SDS011;38606;52.986;6.980;2024-02-26T03:33:38;58.60;;;25.42;;
52708;SDS011;38606;52.986;6.980;2024-02-26T03:36:04;56.90;;;25.27;;
52708;SDS011;38606;52.986;6.980;2024-02-26T03:38:30;58.97;;;26.00;;
52708;SDS011;38606;52.986;6.980;2024-02-26T03:40:56;61.45;;;24.77;;
52708;SDS011;38606;52.986;6.980;2024-02-26T03:43:21;54.70;;;24.10;;
52708;SDS011;38606;52.986;6.980;2024-02-26T03:45:47;58.65;;;23.05;;
52708;SDS011;38606;52.986;6.980;2024-02-26T03:48:13;51.35;;;22.90;;
52708;SDS011;38606;52.986;6.980;2024-02-26T03:50:38;51.70;;;23.63;;
52708;SDS011;38606;52.986;6.980;2024-02-26T03:53:04;49.45;;;22.52;;
52708;SDS011;38606;52.986;6.980;2024-02-26T03:55:30;52.30;;;22.55;;
52708;SDS011;38606;52.986;6.980;2024-02-26T03:57:56;48.17;;;21.95;;
52708;SDS011;38606;52.986;6.980;2024-02-26T04:00:21;45.92;;;21.98;;
52708;SDS011;38606;52.986;6.980;2024-02-26T04:02:47;41.22;;;21.45;;
52708;SDS011;38606;52.986;6.980;2024-02-26T04:05:13;46.55;;;22.02;;
52708;SDS011;38606;52.986;6.980;2024-02-26T04:07:39;46.22;;;22.20;;
52708;SDS011;38606;52.986;6.980;2024-02-26T04:10:09;43.35;;;22.13;;
52708;SDS011;38606;52.986;6.980;2024-02-26T04:12:38;40.72;;;20.58;;
52708;SDS011;38606;52.986;6.980;2024-02-26T04:15:05;38.00;;;20.05;;
52708;SDS011;38606;52.986;6.980;2024-02-26T04:17:32;34.80;;;18.40;;
52708;SDS011;38606;52.986;6.980;2024-02-26T04:19:58;33.55;;;18.65;;
52708;SDS011;38606;52.986;6.980;2024-02-26T04:22:23;34.15;;;18.13;;
52708;SDS011;38606;52.986;6.980;2024-02-26T04:24:49;29.88;;;17.65;;
52708;SDS011;38606;52.986;6.980;2024-02-26T04:27:15;28.77;;;17.52;;
52708;SDS011;38606;52.986;6.980;2024-02-26T04:29:40;29.65;;;17.13;;
52708;SDS011;38606;52.986;6.980;2024-02-26T04:32:06;29.45;;;17.33;;
52708;SDS011;38606;52.986;6.980;2024-02-26T04:34:32;30.50;;;16.58;;
52708;SDS011;38606;52.986;6.980;2024-02-26T04:36:57;27.40;;;15.43;;
52708;SDS011;38606;52.986;6.980;2024-02-26T04:39:23;26.88;;;15.93;;
52708;SDS011;38606;52.986;6.980;2024-02-26T04:41:49;23.65;;;15.18;;
52708;SDS011;38606;52.986;6.980;2024-02-26T04:44:14;20.98;;;13.77;;
52708;SDS011;38606;52.986;6.980;2024-02-26T04:46:40;21.75;;;13.93;;
52708;SDS011;38606;52.986;6.980;2024-02-26T04:49:06;19.75;;;13.02;;
52708;SDS011;38606;52.986;6.980;2024-02-26T04:51:32;17.33;;;11.57;;
52708;SDS011;38606;52.986;6.980;2024-02-26T04:53:57;16.42;;;11.50;;
52708;SDS011;38606;52.986;6.980;2024-02-26T04:56:23;16.83;;;11.25;;
52708;SDS011;38606;52.986;6.980;2024-02-26T04:58:50;15.80;;;10.57;;
52708;SDS011;38606;52.986;6.980;2024-02-26T05:01:15;14.63;;;9.95;;
52708;SDS011;38606;52.986;6.980;2024-02-26T05:03:42;13.80;;;9.50;;
52708;SDS011;38606;52.986;6.980;2024-02-26T05:06:08;12.55;;;9.52;;
52708;SDS011;38606;52.986;6.980;2024-02-26T05:08:37;17.55;;;10.30;;
52708;SDS011;38606;52.986;6.980;2024-02-26T05:11:03;12.73;;;8.85;;
52708;SDS011;38606;52.986;6.980;2024-02-26T05:13:29;14.02;;;9.50;;
52708;SDS011;38606;52.986;6.980;2024-02-26T05:15:55;14.32;;;9.27;;
52708;SDS011;38606;52.986;6.980;2024-02-26T05:18:24;16.45;;;8.80;;
52708;SDS011;38606;52.986;6.980;2024-02-26T05:20:49;11.30;;;8.50;;
52708;SDS011;38606;52.986;6.980;2024-02-26T05:23:15;13.13;;;8.43;;
52708;SDS011;38606;52.986;6.980;2024-02-26T05:25:41;15.85;;;9.48;;
52708;SDS011;38606;52.986;6.980;2024-02-26T05:28:07;13.45;;;8.55;;
52708;SDS011;38606;52.986;6.980;2024-02-26T05:30:32;14.93;;;8.90;;
52708;SDS011;38606;52.986;6.980;2024-02-26T05:32:58;14.00;;;8.82;;
52708;SDS011;38606;52.986;6.980;2024-02-26T05:35:24;14.52;;;8.80;;
52708;SDS011;38606;52.986;6.980;2024-02-26T05:37:53;14.10;;;8.90;;
52708;SDS011;38606;52.986;6.980;2024-02-26T05:40:19;15.57;;;8.73;;
52708;SDS011;38606;52.986;6.980;2024-02-26T05:42:45;12.60;;;9.10;;
52708;SDS011;38606;52.986;6.980;2024-02-26T05:45:11;14.98;;;9.45;;
52708;SDS011;38606;52.986;6.980;2024-02-26T05:47:37;15.07;;;8.93;;
52708;SDS011;38606;52.986;6.980;2024-02-26T05:50:08;14.20;;;8.75;;
52708;SDS011;38606;52.986;6.980;2024-02-26T05:52:36;14.80;;;8.30;;
52708;SDS011;38606;52.986;6.980;2024-02-26T05:55:03;15.60;;;8.98;;
52708;SDS011;38606;52.986;6.980;2024-02-26T05:57:30;13.68;;;8.20;;
52708;SDS011;38606;52.986;6.980;2024-02-26T05:59:57;12.40;;;8.38;;
52708;SDS011;38606;52.986;6.980;2024-02-26T06:02:25;12.02;;;8.48;;
52708;SDS011;38606;52.986;6.980;2024-02-26T06:04:51;12.82;;;7.65;;
52708;SDS011;38606;52.986;6.980;2024-02-26T06:07:17;12.88;;;7.47;;
52708;SDS011;38606;52.986;6.980;2024-02-26T06:09:42;12.20;;;7.50;;
52708;SDS011;38606;52.986;6.980;2024-02-26T06:12:08;10.40;;;7.07;;
52708;SDS011;38606;52.986;6.980;2024-02-26T06:14:34;12.45;;;7.00;;
52708;SDS011;38606;52.986;6.980;2024-02-26T06:17:00;11.13;;;7.45;;
52708;SDS011;38606;52.986;6.980;2024-02-26T06:19:25;14.40;;;7.45;;
52708;SDS011;38606;52.986;6.980;2024-02-26T06:21:51;11.95;;;6.97;;
52708;SDS011;38606;52.986;6.980;2024-02-26T06:24:16;10.73;;;7.22;;
52708;SDS011;38606;52.986;6.980;2024-02-26T06:26:42;13.80;;;6.70;;
52708;SDS011;38606;52.986;6.980;2024-02-26T06:29:08;9.57;;;6.32;;
52708;SDS011;38606;52.986;6.980;2024-02-26T06:31:33;12.10;;;6.65;;
52708;SDS011;38606;52.986;6.980;2024-02-26T06:33:59;10.68;;;6.90;;
52708;SDS011;38606;52.986;6.980;2024-02-26T06:36:25;9.30;;;6.53;;
52708;SDS011;38606;52.986;6.980;2024-02-26T06:38:51;11.63;;;6.90;;
52708;SDS011;38606;52.986;6.980;2024-02-26T06:41:19;11.93;;;6.60;;
52708;SDS011;38606;52.986;6.980;2024-02-26T06:43:45;10.27;;;6.75;;
52708;SDS011;38606;52.986;6.980;2024-02-26T06:46:11;13.05;;;6.88;;
52708;SDS011;38606;52.986;6.980;2024-02-26T06:48:36;11.85;;;6.78;;
52708;SDS011;38606;52.986;6.980;2024-02-26T06:51:02;9.23;;;6.43;;
52708;SDS011;38606;52.986;6.980;2024-02-26T06:53:28;9.30;;;6.15;;
52708;SDS011;38606;52.986;6.980;2024-02-26T06:55:54;10.23;;;6.50;;
52708;SDS011;38606;52.986;6.980;2024-02-26T06:58:20;7.07;;;5.53;;
52708;SDS011;38606;52.986;6.980;2024-02-26T07:00:45;8.05;;;5.65;;
52708;SDS011;38606;52.986;6.980;2024-02-26T07:03:11;8.70;;;5.50;;
52708;SDS011;38606;52.986;6.980;2024-02-26T07:05:39;9.52;;;5.75;;
52708;SDS011;38606;52.986;6.980;2024-02-26T07:08:04;7.80;;;5.70;;
52708;SDS011;38606;52.986;6.980;2024-02-26T07:10:30;7.65;;;4.82;;
52708;SDS011;38606;52.986;6.980;2024-02-26T07:12:56;10.25;;;5.55;;
52708;SDS011;38606;52.986;6.980;2024-02-26T07:15:22;7.32;;;5.57;;
52708;SDS011;38606;52.986;6.980;2024-02-26T07:17:47;7.90;;;5.72;;
52708;SDS011;38606;52.986;6.980;2024-02-26T07:20:14;9.18;;;5.53;;
52708;SDS011;38606;52.986;6.980;2024-02-26T07:22:40;6.70;;;5.47;;
52708;SDS011;38606;52.986;6.980;2024-02-26T07:25:07;7.88;;;5.30;;
52708;SDS011;38606;52.986;6.980;2024-02-26T07:27:34;8.60;;;5.18;;
52708;SDS011;38606;52.986;6.980;2024-02-26T07:30:00;7.43;;;5.07;;
52708;SDS011;38606;52.986;6.980;2024-02-26T07:32:25;5.85;;;4.55;;
52708;SDS011;38606;52.986;6.980;2024-02-26T07:34:51;8.43;;;5.43;;
52708;SDS011;38606;52.986;6.980;2024-02-26T07:37:17;7.47;;;5.15;;
52708;SDS011;38606;52.986;6.980;2024-02-26T07:39:42;5.78;;;4.88;;
52708;SDS011;38606;52.986;6.980;2024-02-26T07:42:08;5.90;;;4.88;;
52708;SDS011;38606;52.986;6.980;2024-02-26T07:44:34;5.60;;;4.78;;
52708;SDS011;38606;52.986;6.980;2024-02-26T07:47:00;5.45;;;4.70;;
52708;SDS011;38606;52.986;6.980;2024-02-26T07:49:26;7.05;;;5.03;;
52708;SDS011;38606;52.986;6.980;2024-02-26T07:51:51;7.22;;;4.93;;
52708;SDS011;38606;52.986;6.980;2024-02-26T07:54:17;5.45;;;3.90;;
52708;SDS011;38606;52.986;6.980;2024-02-26T07:56:44;4.97;;;4.13;;
52708;SDS011;38606;52.986;6.980;2024-02-26T07:59:10;6.40;;;4.78;;
52708;SDS011;38606;52.986;6.980;2024-02-26T08:01:35;6.40;;;4.90;;
52708;SDS011;38606;52.986;6.980;2024-02-26T08:04:04;5.88;;;4.47;;
52708;SDS011;38606;52.986;6.980;2024-02-26T08:06:30;5.65;;;4.50;;
52708;SDS011;38606;52.986;6.980;2024-02-26T08:08:56;4.78;;;4.18;;
52708;SDS011;38606;52.986;6.980;2024-02-26T08:11:21;5.05;;;3.90;;
52708;SDS011;38606;52.986;6.980;2024-02-26T08:13:47;6.40;;;4.40;;
52708;SDS011;38606;52.986;6.980;2024-02-26T08:16:13;4.63;;;4.20;;
52708;SDS011;38606;52.986;6.980;2024-02-26T08:18:38;5.30;;;4.43;;
52708;SDS011;38606;52.986;6.980;2024-02-26T08:21:05;6.28;;;4.57;;
52708;SDS011;38606;52.986;6.980;2024-02-26T08:23:30;6.05;;;4.38;;
52708;SDS011;38606;52.986;6.980;2024-02-26T08:25:56;7.18;;;4.53;;
52708;SDS011;38606;52.986;6.980;2024-02-26T08:28:22;5.90;;;5.00;;
52708;SDS011;38606;52.986;6.980;2024-02-26T08:30:48;4.90;;;4.05;;
52708;SDS011;38606;52.986;6.980;2024-02-26T08:33:14;6.53;;;5.10;;
52708;SDS011;38606;52.986;6.980;2024-02-26T08:35:40;5.35;;;4.32;;
52708;SDS011;38606;52.986;6.980;2024-02-26T08:38:06;5.90;;;4.38;;
52708;SDS011;38606;52.986;6.980;2024-02-26T08:40:32;7.80;;;5.32;;
52708;SDS011;38606;52.986;6.980;2024-02-26T08:42:57;7.60;;;4.90;;
52708;SDS011;38606;52.986;6.980;2024-02-26T08:45:23;6.40;;;4.40;;
52708;SDS011;38606;52.986;6.980;2024-02-26T08:47:49;7.68;;;4.47;;
52708;SDS011;38606;52.986;6.980;2024-02-26T08:50:15;7.25;;;5.10;;
52708;SDS011;38606;52.986;6.980;2024-02-26T08:52:41;6.57;;;5.05;;
52708;SDS011;38606;52.986;6.980;2024-02-26T08:55:06;6.25;;;5.00;;
52708;SDS011;38606;52.986;6.980;2024-02-26T08:57:34;8.27;;;5.00;;
52708;SDS011;38606;52.986;6.980;2024-02-26T09:00:00;6.35;;;4.78;;
52708;SDS011;38606;52.986;6.980;2024-02-26T09:02:26;6.25;;;4.40;;
52708;SDS011;38606;52.986;6.980;2024-02-26T09:04:52;5.72;;;5.00;;
52708;SDS011;38606;52.986;6.980;2024-02-26T09:07:20;6.18;;;4.60;;
52708;SDS011;38606;52.986;6.980;2024-02-26T09:09:46;7.60;;;5.00;;
52708;SDS011;38606;52.986;6.980;2024-02-26T09:12:12;7.20;;;4.78;;
52708;SDS011;38606;52.986;6.980;2024-02-26T09:14:37;7.30;;;5.45;;
52708;SDS011;38606;52.986;6.980;2024-02-26T09:17:03;7.75;;;5.47;;
52708;SDS011;38606;52.986;6.980;2024-02-26T09:19:30;5.95;;;4.40;;
52708;SDS011;38606;52.986;6.980;2024-02-26T09:21:56;5.63;;;4.88;;
52708;SDS011;38606;52.986;6.980;2024-02-26T09:24:23;9.32;;;6.10;;
52708;SDS011;38606;52.986;6.980;2024-02-26T09:26:50;5.88;;;5.13;;
52708;SDS011;38606;52.986;6.980;2024-02-26T09:29:15;6.18;;;5.00;;
52708;SDS011;38606;52.986;6.980;2024-02-26T09:31:42;7.72;;;5.03;;
52708;SDS011;38606;52.986;6.980;2024-02-26T09:34:08;5.50;;;4.90;;
52708;SDS011;38606;52.986;6.980;2024-02-26T09:36:34;6.20;;;4.68;;
52708;SDS011;38606;52.986;6.980;2024-02-26T09:39:00;6.78;;;5.75;;
52708;SDS011;38606;52.986;6.980;2024-02-26T09:41:27;6.05;;;5.07;;
52708;SDS011;38606;52.986;6.980;2024-02-26T09:43:55;6.15;;;5.30;;
52708;SDS011;38606;52.986;6.980;2024-02-26T09:46:22;6.90;;;4.57;;
52708;SDS011;38606;52.986;6.980;2024-02-26T09:48:49;6.50;;;5.30;;
52708;SDS011;38606;52.986;6.980;2024-02-26T09:51:15;6.78;;;5.40;;
52708;SDS011;38606;52.986;6.980;2024-02-26T09:53:43;5.85;;;4.97;;
52708;SDS011;38606;52.986;6.980;2024-02-26T09:56:11;5.88;;;4.80;;
52708;SDS011;38606;52.986;6.980;2024-02-26T09:58:38;7.35;;;5.45;;
52708;SDS011;38606;52.986;6.980;2024-02-26T10:01:09;7.05;;;5.80;;
52708;SDS011;38606;52.986;6.980;2024-02-26T10:03:38;10.40;;;5.75;;
52708;SDS011;38606;52.986;6.980;2024-02-26T10:06:09;9.95;;;5.32;;
52708;SDS011;38606;52.986;6.980;2024-02-26T10:08:36;7.47;;;5.45;;
52708;SDS011;38606;52.986;6.980;2024-02-26T10:11:03;7.07;;;5.57;;
52708;SDS011;38606;52.986;6.980;2024-02-26T10:13:30;7.22;;;5.50;;
52708;SDS011;38606;52.986;6.980;2024-02-26T10:15:55;7.32;;;5.47;;
52708;SDS011;38606;52.986;6.980;2024-02-26T10:18:25;7.43;;;5.75;;
52708;SDS011;38606;52.986;6.980;2024-02-26T10:21:01;7.15;;;5.65;;
52708;SDS011;38606;52.986;6.980;2024-02-26T10:23:27;9.05;;;5.55;;
52708;SDS011;38606;52.986;6.980;2024-02-26T10:25:53;9.30;;;6.22;;
52708;SDS011;38606;52.986;6.980;2024-02-26T10:28:20;7.32;;;5.97;;
52708;SDS011;38606;52.986;6.980;2024-02-26T10:30:46;7.50;;;5.78;;
52708;SDS011;38606;52.986;6.980;2024-02-26T10:33:12;8.63;;;5.82;;
52708;SDS011;38606;52.986;6.980;2024-02-26T10:35:47;6.93;;;5.85;;
52708;SDS011;38606;52.986;6.980;2024-02-26T10:38:13;8.95;;;5.68;;
52708;SDS011;38606;52.986;6.980;2024-02-26T10:40:42;8.32;;;6.35;;
52708;SDS011;38606;52.986;6.980;2024-02-26T10:43:08;10.10;;;6.13;;
52708;SDS011;38606;52.986;6.980;2024-02-26T10:45:33;9.45;;;6.10;;
52708;SDS011;38606;52.986;6.980;2024-02-26T10:48:00;9.15;;;6.38;;
52708;SDS011;38606;52.986;6.980;2024-02-26T10:50:25;9.30;;;6.43;;
52708;SDS011;38606;52.986;6.980;2024-02-26T10:52:51;8.02;;;5.80;;
52708;SDS011;38606;52.986;6.980;2024-02-26T10:55:19;8.30;;;5.68;;
52708;SDS011;38606;52.986;6.980;2024-02-26T10:57:47;8.68;;;6.38;;
52708;SDS011;38606;52.986;6.980;2024-02-26T11:00:15;8.63;;;5.80;;
52708;SDS011;38606;52.986;6.980;2024-02-26T11:02:41;8.90;;;6.35;;
52708;SDS011;38606;52.986;6.980;2024-02-26T11:05:10;8.07;;;6.15;;
52708;SDS011;38606;52.986;6.980;2024-02-26T11:07:37;7.82;;;5.60;;
52708;SDS011;38606;52.986;6.980;2024-02-26T11:10:04;7.97;;;5.50;;
52708;SDS011;38606;52.986;6.980;2024-02-26T11:12:32;8.85;;;5.43;;
52708;SDS011;38606;52.986;6.980;2024-02-26T11:15:00;6.35;;;4.82;;
52708;SDS011;38606;52.986;6.980;2024-02-26T11:17:27;6.65;;;5.30;;
52708;SDS011;38606;52.986;6.980;2024-02-26T11:19:56;6.72;;;5.43;;
52708;SDS011;38606;52.986;6.980;2024-02-26T11:22:26;8.02;;;5.45;;
52708;SDS011;38606;52.986;6.980;2024-02-26T11:24:56;6.78;;;5.55;;
52708;SDS011;38606;52.986;6.980;2024-02-26T11:27:30;6.95;;;5.20;;
52708;SDS011;38606;52.986;6.980;2024-02-26T11:29:59;6.95;;;5.40;;
52708;SDS011;38606;52.986;6.980;2024-02-26T11:32:27;6.28;;;4.80;;
52708;SDS011;38606;52.986;6.980;2024-02-26T11:34:55;6.90;;;5.43;;
52708;SDS011;38606;52.986;6.980;2024-02-26T11:37:22;9.27;;;5.63;;
52708;SDS011;38606;52.986;6.980;2024-02-26T11:39:49;6.85;;;5.00;;
52708;SDS011;38606;52.986;6.980;2024-02-26T11:42:17;7.18;;;5.75;;
52708;SDS011;38606;52.986;6.980;2024-02-26T11:44:47;7.38;;;5.45;;
52708;SDS011;38606;52.986;6.980;2024-02-26T11:47:14;6.90;;;5.35;;
52708;SDS011;38606;52.986;6.980;2024-02-26T11:49:47;8.18;;;5.15;;
52708;SDS011;38606;52.986;6.980;2024-02-26T11:52:14;7.15;;;5.13;;
52708;SDS011;38606;52.986;6.980;2024-02-26T12:02:50;7.38;;;5.57;;
52708;SDS011;38606;52.986;6.980;2024-02-26T12:05:23;9.50;;;5.22;;
52708;SDS011;38606;52.986;6.980;2024-02-26T12:07:52;6.68;;;5.07;;
52708;SDS011;38606;52.986;6.980;2024-02-26T12:10:26;8.00;;;5.28;;
52708;SDS011;38606;52.986;6.980;2024-02-26T12:12:59;8.20;;;5.10;;
52708;SDS011;38606;52.986;6.980;2024-02-26T12:15:54;7.00;;;4.70;;
52708;SDS011;38606;52.986;6.980;2024-02-26T12:18:19;7.38;;;5.43;;
52708;SDS011;38606;52.986;6.980;2024-02-26T12:20:45;6.18;;;4.65;;
52708;SDS011;38606;52.986;6.980;2024-02-26T12:23:15;6.82;;;4.85;;
52708;SDS011;38606;52.986;6.980;2024-02-26T12:25:44;8.30;;;5.93;;
52708;SDS011;38606;52.986;6.980;2024-02-26T12:28:13;6.75;;;5.18;;
52708;SDS011;38606;52.986;6.980;2024-02-26T12:30:39;6.75;;;4.78;;
52708;SDS011;38606;52.986;6.980;2024-02-26T12:33:05;7.30;;;5.32;;
52708;SDS011;38606;52.986;6.980;2024-02-26T12:35:33;6.93;;;5.38;;
52708;SDS011;38606;52.986;6.980;2024-02-26T12:38:00;9.13;;;5.93;;
52708;SDS011;38606;52.986;6.980;2024-02-26T12:40:29;8.27;;;5.72;;
52708;SDS011;38606;52.986;6.980;2024-02-26T12:42:55;8.07;;;5.00;;
52708;SDS011;38606;52.986;6.980;2024-02-26T12:45:21;7.53;;;5.15;;
52708;SDS011;38606;52.986;6.980;2024-02-26T12:47:47;8.30;;;6.15;;
52708;SDS011;38606;52.986;6.980;2024-02-26T12:50:14;7.32;;;4.95;;
52708;SDS011;38606;52.986;6.980;2024-02-26T12:52:44;9.13;;;6.50;;
52708;SDS011;38606;52.986;6.980;2024-02-26T12:55:13;9.57;;;6.22;;
52708;SDS011;38606;52.986;6.980;2024-02-26T12:57:40;7.82;;;5.80;;
52708;SDS011;38606;52.986;6.980;2024-02-26T13:00:08;7.90;;;5.32;;
52708;SDS011;38606;52.986;6.980;2024-02-26T13:02:38;7.38;;;5.68;;
52708;SDS011;38606;52.986;6.980;2024-02-26T13:05:05;8.57;;;5.93;;
52708;SDS011;38606;52.986;6.980;2024-02-26T13:07:33;8.45;;;6.43;;
52708;SDS011;38606;52.986;6.980;2024-02-26T13:09:59;7.60;;;6.18;;
52708;SDS011;38606;52.986;6.980;2024-02-26T13:12:26;7.93;;;6.25;;
52708;SDS011;38606;52.986;6.980;2024-02-26T13:15:01;9.07;;;6.80;;
52708;SDS011;38606;52.986;6.980;2024-02-26T13:17:31;8.32;;;6.53;;
52708;SDS011;38606;52.986;6.980;2024-02-26T13:19:57;9.35;;;7.00;;
52708;SDS011;38606;52.986;6.980;2024-02-26T13:22:23;10.30;;;7.20;;
52708;SDS011;38606;52.986;6.980;2024-02-26T13:24:55;9.63;;;6.93;;
52708;SDS011;38606;52.986;6.980;2024-02-26T13:27:22;12.27;;;7.65;;
52708;SDS011;38606;52.986;6.980;2024-02-26T13:29:48;11.07;;;7.47;;
52708;SDS011;38606;52.986;6.980;2024-02-26T13:32:26;12.15;;;7.38;;
52708;SDS011;38606;52.986;6.980;2024-02-26T13:35:04;9.50;;;7.13;;
52708;SDS011;38606;52.986;6.980;2024-02-26T13:37:31;11.15;;;8.05;;
52708;SDS011;38606;52.986;6.980;2024-02-26T13:39:57;9.45;;;7.60;;
52708;SDS011;38606;52.986;6.980;2024-02-26T13:42:22;8.90;;;7.20;;
52708;SDS011;38606;52.986;6.980;2024-02-26T13:44:48;9.73;;;7.15;;
52708;SDS011;38606;52.986;6.980;2024-02-26T13:47:14;8.50;;;6.72;;
52708;SDS011;38606;52.986;6.980;2024-02-26T13:49:41;9.98;;;7.22;;
52708;SDS011;38606;52.986;6.980;2024-02-26T13:52:07;9.82;;;7.55;;
52708;SDS011;38606;52.986;6.980;2024-02-26T13:54:32;9.95;;;7.45;;
52708;SDS011;38606;52.986;6.980;2024-02-26T13:56:59;9.48;;;7.43;;
52708;SDS011;38606;52.986;6.980;2024-02-26T13:59:24;9.68;;;7.43;;
52708;SDS011;38606;52.986;6.980;2024-02-26T14:01:50;10.35;;;8.32;;
52708;SDS011;38606;52.986;6.980;2024-02-26T14:04:18;10.75;;;8.13;;
52708;SDS011;38606;52.986;6.980;2024-02-26T14:06:43;9.38;;;7.85;;
52708;SDS011;38606;52.986;6.980;2024-02-26T14:09:09;13.48;;;8.82;;
52708;SDS011;38606;52.986;6.980;2024-02-26T14:11:35;10.45;;;7.78;;
52708;SDS011;38606;52.986;6.980;2024-02-26T14:14:01;10.93;;;8.05;;
52708;SDS011;38606;52.986;6.980;2024-02-26T14:16:27;10.75;;;7.93;;
52708;SDS011;38606;52.986;6.980;2024-02-26T14:18:52;11.18;;;8.27;;
52708;SDS011;38606;52.986;6.980;2024-02-26T14:21:18;12.20;;;8.57;;
52708;SDS011;38606;52.986;6.980;2024-02-26T14:23:44;13.20;;;9.10;;
52708;SDS011;38606;52.986;6.980;2024-02-26T14:26:10;12.48;;;9.07;;
52708;SDS011;38606;52.986;6.980;2024-02-26T14:28:36;13.95;;;9.18;;
52708;SDS011;38606;52.986;6.980;2024-02-26T14:31:02;12.07;;;9.02;;
52708;SDS011;38606;52.986;6.980;2024-02-26T14:33:30;17.33;;;9.88;;
52708;SDS011;38606;52.986;6.980;2024-02-26T14:35:56;13.38;;;9.00;;
52708;SDS011;38606;52.986;6.980;2024-02-26T14:38:22;15.13;;;9.77;;
52708;SDS011;38606;52.986;6.980;2024-02-26T14:40:48;12.45;;;8.95;;